Jacksonville, FL (32230)

2:09 PM EDT on September 17, 2014 (GMT -0400)
Leeward Landing @ Neptune Beach | Change Station
CLOSE
Current Station
Personal Weather Station
Location: Neptune Beach, FL
Elevation: 14 ft
Nearby Weather Stations
Active Advisory: Coastal Hazard Statement Active Notice: Local Storm Report

Elev 14 ft 30.32 °N, 81.41 °W | Updated 8 seconds ago

Partly Cloudy
Partly Cloudy
82.8 °F
Feels Like 90 °F
N
0.0
Wind Variable Wind from NW
Gusts 3.0 mph

Today
High -- | Low -- °F
--% Chance of Precip.
Yesterday
High -- | Low -- °F
Precip. -- in
7:11 AM 7:28 PM
Waning Crescent, 34% visible
Pressure 29.90 in
Visibility 10.0 miles
Clouds Scattered Clouds 3000 ft
Mostly Cloudy 25000 ft
Heat Index 90 °F
Dew Point 75 °F
Humidity 76%
Rainfall 0.00 in
Snow Depth Not available.
UV 7 out of 12
Pollen 6.40 out of 12
Ozone Good
PM2.5 Good
Flu Activity Not available.
METAR KNRB 171752Z 05007KT 10SM SCT030 BKN250 28/22 A2990 RMK AO2 SLP125 T02830222 10294 20233 58009 $

More Conditions Fewer Conditions

Pressure 29.90 in
Visibility 10.0 miles
Clouds Scattered Clouds 3000 ft
Mostly Cloudy 25000 ft
Heat Index 90 °F
Dew Point 75 °F
Humidity 76%
Rainfall 0.00 in
Snow Depth Not available.
UV 7 out of 12
Pollen 6.40 out of 12
Ozone Good
PM2.5 Good
Flu Activity Not available.
METAR KNRB 171752Z 05007KT 10SM SCT030 BKN250 28/22 A2990 RMK AO2 SLP125 T02830222 10294 20233 58009 $

More Conditions Fewer Conditions

10-Day Weather Forecast

Almanac

Astronomy

Sep. 17, 2014 Rise Set
Actual Time 7:11 AM EDT 7:28 PM EDT
Civil Twilight 6:47 AM EDT 7:52 PM EDT
Nautical Twilight 6:19 AM EDT 8:20 PM EDT
Astronomical Twilight 5:50 AM EDT 8:48 PM EDT
Moon 1:27 AM EDT 3:20 PM EDT
Length of Visible Light 13h 05m
Length of Day
12h 17m
Tomorrow will be 1m 49s shorter.
Waning Crescent, 34% of the Moon is Illuminated
Today
Waning Crescent
Sep 24
New
Oct 1
First Quarter
Oct 8
Full
Oct 15
Last Quarter

Today's Extremes

State Highs State Lows

Community

WunderPhotos

Upload Photos

1,754,112 photos uploaded!

WunderBlogs® & News

Nearby

Air Quality

  Air Quality AQ Index Pollutant
Yesterday Good
PM2.5
Yesterday Good
OZONE
Current Good
PM2.5
Current Good
OZONE
Wednesday Good
OZONE
Wednesday Good
PM2.5

Snow Depth

Station Depth Elevation
No new snow has been reported.

Earthquake Activity

City Distance Mag. Time & Date
No recent earthquake activity has been reported nearby.
Minimum magnitude displayed is 2.5.

Coastal Water Temperatures

Place Temperature
Mayport (Bar Pilots Dock), FL 84.0 °F
Fernandina Beach, FL 84.0 °F

Nearby Weather Stations